Aérodrome :
LOGIN :

S'inscrire | Disclaimer

   EN    FR    IT 

 










Légende :    VFR   VFR Marginal   IFR   IFR Intensif   IFR Très Intensif
Visi : 
Plafond : 
>= 8 km
>= 3000ft
5 à 8 km
1000 à 3000 ft
1500m à 5 km
500 à 1000 ft
800 à 1500m
200 à 500 ft
< 800m
< 200 ft
Symboles :   Orages  Brouillard  Fortes neiges  Fortes précipitations  Vent > 20 kt
SIGMETs :   Divers  Orages  Givrage  Turbulence  Onde Orograph.  Cendres Volcan.






- Altitude de l'aérodrome : 392 ft
- Code IATA : CDG


LFPG - Paris-Aeroport Charles De Gaulle

DERNIER METAR :
  • 210200Z VRB01KT 6000 BKN002 BKN003 11/10 Q1008 TEMPO 2000 RADZ BKN002

METARs EXPIRÉS :
  • 210130Z 36005KT 7000 SCT004 BKN006 11/10 Q1008 TEMPO 2000 RADZ BKN002
  • 210100Z 36007KT 9999 FEW004 BKN006 BKN009 11/10 Q1007 TEMPO 2000 RADZ BKN002
  • 210030Z 34005KT 300V010 9999 -DZ BKN004 BKN007 10/10 Q1007 TEMPO 2000 RADZ BKN002
  • 210000Z 35008KT 7000 -RADZ BKN004 BKN010 11/10 Q1007 TEMPO 2000 RADZ BKN002
  • 202330Z 31007KT 6000 -RADZ BKN004 BKN007 11/10 Q1007 TEMPO 2000 RADZ BKN002

TAF TAF LFPG
Valide du 21 à 00h jusqu'au 22 à 06h UTC


202300Z 2100/2206 30005KT 6000 BKN006 TX15/2114Z TN07/2206Z
TEMPO 2100/2106 4000 -RADZ BKN004
PROB40
TEMPO 2100/2106 2000 RADZ BKN002
BECMG 2106/2108 BKN013
BECMG 2109/2111 BKN020
BECMG 2121/2123 3000 BR
BECMG 2200/2203 0500 FG VV///
ATIS : +33 1 48 62 10 92



MET'MAP, la Météo Aéronautique d'un coup d'oeil ! - Copyright ORBIFLY Décembre 2007 - Disclaimer

ORBIFLY MET'MAP TEAM :

Programmation & Développement : Alexandra Zaïnal
Conception & Développement : Baudouin d'Aumeries
Co-Programmation & Développement : Marc-Olivier Méhu
Soutien technique & logistique : Manuel Goepfert

Contact : metmap@orbifly.com




SOURCES & CREDITS :

   NOAA